sensor_id;sensor_type;location;lat;lon;timestamp;temperature;humidity
54680;DHT22;40578;53.178;5.846;2022-08-21T00:00:40;14.20;99.90
54680;DHT22;40578;53.178;5.846;2022-08-21T00:03:08;14.20;99.90
54680;DHT22;40578;53.178;5.846;2022-08-21T00:05:37;14.10;99.90
54680;DHT22;40578;53.178;5.846;2022-08-21T00:08:04;14.00;1.00
54680;DHT22;40578;53.178;5.846;2022-08-21T00:10:30;14.00;1.00
54680;DHT22;40578;53.178;5.846;2022-08-21T00:12:56;14.00;1.00
54680;DHT22;40578;53.178;5.846;2022-08-21T00:15:26;14.00;1.00
54680;DHT22;40578;53.178;5.846;2022-08-21T00:17:53;14.10;1.00
54680;DHT22;40578;53.178;5.846;2022-08-21T00:20:20;14.00;5.80
54680;DHT22;40578;53.178;5.846;2022-08-21T00:22:46;14.00;33.60
54680;DHT22;40578;53.178;5.846;2022-08-21T00:25:14;14.00;49.20
54680;DHT22;40578;53.178;5.846;2022-08-21T00:27:41;13.90;73.20
54680;DHT22;40578;53.178;5.846;2022-08-21T00:30:11;13.90;42.50
54680;DHT22;40578;53.178;5.846;2022-08-21T00:32:40;13.90;62.90
54680;DHT22;40578;53.178;5.846;2022-08-21T00:35:12;13.90;99.70
54680;DHT22;40578;53.178;5.846;2022-08-21T00:37:40;14.00;99.90
54680;DHT22;40578;53.178;5.846;2022-08-21T00:40:09;13.90;99.90
54680;DHT22;40578;53.178;5.846;2022-08-21T00:42:36;13.90;99.90
54680;DHT22;40578;53.178;5.846;2022-08-21T00:45:03;13.80;99.90
54680;DHT22;40578;53.178;5.846;2022-08-21T00:47:29;13.90;99.90
54680;DHT22;40578;53.178;5.846;2022-08-21T00:49:54;13.90;97.20
54680;DHT22;40578;53.178;5.846;2022-08-21T00:52:23;13.80;96.20
54680;DHT22;40578;53.178;5.846;2022-08-21T00:54:50;13.80;99.90
54680;DHT22;40578;53.178;5.846;2022-08-21T00:57:22;13.70;99.90
54680;DHT22;40578;53.178;5.846;2022-08-21T00:59:51;13.80;99.90
54680;DHT22;40578;53.178;5.846;2022-08-21T01:02:19;13.80;99.90
54680;DHT22;40578;53.178;5.846;2022-08-21T01:04:45;13.70;99.90
54680;DHT22;40578;53.178;5.846;2022-08-21T01:07:11;13.80;99.90
54680;DHT22;40578;53.178;5.846;2022-08-21T01:09:38;13.70;99.90
54680;DHT22;40578;53.178;5.846;2022-08-21T01:12:04;13.80;99.90
54680;DHT22;40578;53.178;5.846;2022-08-21T01:14:31;13.60;99.90
54680;DHT22;40578;53.178;5.846;2022-08-21T01:16:58;13.70;99.90
54680;DHT22;40578;53.178;5.846;2022-08-21T01:19:27;13.80;99.90
54680;DHT22;40578;53.178;5.846;2022-08-21T01:21:53;13.70;99.90
54680;DHT22;40578;53.178;5.846;2022-08-21T01:24:19;13.60;99.90
54680;DHT22;40578;53.178;5.846;2022-08-21T01:26:45;13.70;99.90
54680;DHT22;40578;53.178;5.846;2022-08-21T01:29:16;13.70;99.90
54680;DHT22;40578;53.178;5.846;2022-08-21T01:31:45;13.70;99.90
54680;DHT22;40578;53.178;5.846;2022-08-21T01:34:12;13.60;99.90
54680;DHT22;40578;53.178;5.846;2022-08-21T01:36:37;13.60;99.90
54680;DHT22;40578;53.178;5.846;2022-08-21T01:39:05;13.60;99.90
54680;DHT22;40578;53.178;5.846;2022-08-21T01:41:30;13.70;99.90
54680;DHT22;40578;53.178;5.846;2022-08-21T01:43:56;13.70;99.90
54680;DHT22;40578;53.178;5.846;2022-08-21T01:46:22;13.60;99.90
54680;DHT22;40578;53.178;5.846;2022-08-21T01:48:48;13.50;99.90
54680;DHT22;40578;53.178;5.846;2022-08-21T01:51:14;13.50;99.90
54680;DHT22;40578;53.178;5.846;2022-08-21T01:53:42;13.50;99.90
54680;DHT22;40578;53.178;5.846;2022-08-21T01:56:11;13.60;99.90
54680;DHT22;40578;53.178;5.846;2022-08-21T01:58:37;13.50;99.90
54680;DHT22;40578;53.178;5.846;2022-08-21T02:01:03;13.50;99.90
54680;DHT22;40578;53.178;5.846;2022-08-21T02:03:30;13.40;99.90
54680;DHT22;40578;53.178;5.846;2022-08-21T02:05:56;13.90;99.90
54680;DHT22;40578;53.178;5.846;2022-08-21T02:08:22;13.40;99.90
54680;DHT22;40578;53.178;5.846;2022-08-21T02:10:51;13.40;99.90
54680;DHT22;40578;53.178;5.846;2022-08-21T02:13:18;13.40;99.90
54680;DHT22;40578;53.178;5.846;2022-08-21T02:15:44;13.40;99.90
54680;DHT22;40578;53.178;5.846;2022-08-21T02:18:10;13.40;99.90
54680;DHT22;40578;53.178;5.846;2022-08-21T02:20:40;13.50;99.90
54680;DHT22;40578;53.178;5.846;2022-08-21T02:23:08;13.50;99.90
54680;DHT22;40578;53.178;5.846;2022-08-21T02:25:33;13.40;99.90
54680;DHT22;40578;53.178;5.846;2022-08-21T02:28:03;13.40;99.90
54680;DHT22;40578;53.178;5.846;2022-08-21T02:30:33;13.50;99.90
54680;DHT22;40578;53.178;5.846;2022-08-21T02:32:59;13.60;99.90
54680;DHT22;40578;53.178;5.846;2022-08-21T02:35:26;13.50;99.90
54680;DHT22;40578;53.178;5.846;2022-08-21T02:37:58;13.60;99.90
54680;DHT22;40578;53.178;5.846;2022-08-21T02:40:27;13.40;99.90
54680;DHT22;40578;53.178;5.846;2022-08-21T02:42:57;13.30;99.90
54680;DHT22;40578;53.178;5.846;2022-08-21T02:45:23;13.60;99.90
54680;DHT22;40578;53.178;5.846;2022-08-21T02:47:57;13.30;99.90
54680;DHT22;40578;53.178;5.846;2022-08-21T02:50:26;13.40;99.90
54680;DHT22;40578;53.178;5.846;2022-08-21T02:52:52;13.30;99.90
54680;DHT22;40578;53.178;5.846;2022-08-21T02:55:24;13.30;99.90
54680;DHT22;40578;53.178;5.846;2022-08-21T02:57:52;13.30;99.90
54680;DHT22;40578;53.178;5.846;2022-08-21T03:00:19;13.40;99.90
54680;DHT22;40578;53.178;5.846;2022-08-21T03:02:46;13.30;99.90
54680;DHT22;40578;53.178;5.846;2022-08-21T03:05:12;13.30;99.90
54680;DHT22;40578;53.178;5.846;2022-08-21T03:07:40;13.40;99.90
54680;DHT22;40578;53.178;5.846;2022-08-21T03:10:07;13.40;99.90
54680;DHT22;40578;53.178;5.846;2022-08-21T03:12:34;13.50;99.90
54680;DHT22;40578;53.178;5.846;2022-08-21T03:15:05;13.40;99.90
54680;DHT22;40578;53.178;5.846;2022-08-21T03:17:32;13.50;99.90
54680;DHT22;40578;53.178;5.846;2022-08-21T03:19:58;13.60;99.90
54680;DHT22;40578;53.178;5.846;2022-08-21T03:22:24;13.60;99.90
54680;DHT22;40578;53.178;5.846;2022-08-21T03:24:50;13.60;99.90
54680;DHT22;40578;53.178;5.846;2022-08-21T03:27:16;13.50;99.90
54680;DHT22;40578;53.178;5.846;2022-08-21T03:29:42;13.60;99.90
54680;DHT22;40578;53.178;5.846;2022-08-21T03:32:08;13.60;99.90
54680;DHT22;40578;53.178;5.846;2022-08-21T03:34:37;13.70;99.90
54680;DHT22;40578;53.178;5.846;2022-08-21T03:37:05;13.70;99.90
54680;DHT22;40578;53.178;5.846;2022-08-21T03:39:30;13.70;99.90
54680;DHT22;40578;53.178;5.846;2022-08-21T03:41:56;13.60;99.90
54680;DHT22;40578;53.178;5.846;2022-08-21T03:44:22;13.70;99.90
54680;DHT22;40578;53.178;5.846;2022-08-21T03:46:47;13.80;99.90
54680;DHT22;40578;53.178;5.846;2022-08-21T03:49:14;13.70;99.90
54680;DHT22;40578;53.178;5.846;2022-08-21T03:51:40;13.80;99.90
54680;DHT22;40578;53.178;5.846;2022-08-21T03:54:06;13.60;99.90
54680;DHT22;40578;53.178;5.846;2022-08-21T03:56:31;13.80;99.90
54680;DHT22;40578;53.178;5.846;2022-08-21T03:58:57;13.80;99.90
54680;DHT22;40578;53.178;5.846;2022-08-21T04:01:23;13.60;99.90
54680;DHT22;40578;53.178;5.846;2022-08-21T04:03:49;13.80;99.90
54680;DHT22;40578;53.178;5.846;2022-08-21T04:06:14;13.60;99.90
54680;DHT22;40578;53.178;5.846;2022-08-21T04:08:40;13.60;99.90
54680;DHT22;40578;53.178;5.846;2022-08-21T04:11:09;13.70;99.90
54680;DHT22;40578;53.178;5.846;2022-08-21T04:13:36;13.60;99.90
54680;DHT22;40578;53.178;5.846;2022-08-21T04:16:02;13.60;99.90
54680;DHT22;40578;53.178;5.846;2022-08-21T04:18:29;13.70;99.90
54680;DHT22;40578;53.178;5.846;2022-08-21T04:20:56;13.70;99.90
54680;DHT22;40578;53.178;5.846;2022-08-21T04:23:23;13.60;99.90
54680;DHT22;40578;53.178;5.846;2022-08-21T04:25:49;13.80;99.90
54680;DHT22;40578;53.178;5.846;2022-08-21T04:28:15;13.80;99.90
54680;DHT22;40578;53.178;5.846;2022-08-21T04:30:41;13.60;99.90
54680;DHT22;40578;53.178;5.846;2022-08-21T04:33:07;14.30;99.90
54680;DHT22;40578;53.178;5.846;2022-08-21T04:35:33;13.80;99.90
54680;DHT22;40578;53.178;5.846;2022-08-21T04:37:58;13.80;99.90
54680;DHT22;40578;53.178;5.846;2022-08-21T04:40:27;13.70;99.90
54680;DHT22;40578;53.178;5.846;2022-08-21T04:43:05;13.70;99.90
54680;DHT22;40578;53.178;5.846;2022-08-21T04:45:33;13.90;99.90
54680;DHT22;40578;53.178;5.846;2022-08-21T04:48:01;13.70;99.90
54680;DHT22;40578;53.178;5.846;2022-08-21T04:50:41;13.70;99.90
54680;DHT22;40578;53.178;5.846;2022-08-21T04:53:22;13.70;99.90
54680;DHT22;40578;53.178;5.846;2022-08-21T04:55:50;13.80;99.90
54680;DHT22;40578;53.178;5.846;2022-08-21T04:58:19;13.90;99.90
54680;DHT22;40578;53.178;5.846;2022-08-21T05:00:46;13.80;99.90
54680;DHT22;40578;53.178;5.846;2022-08-21T05:03:14;13.80;99.90
54680;DHT22;40578;53.178;5.846;2022-08-21T05:05:40;13.80;99.90
54680;DHT22;40578;53.178;5.846;2022-08-21T05:08:07;14.00;99.90
54680;DHT22;40578;53.178;5.846;2022-08-21T05:10:34;13.90;99.90
54680;DHT22;40578;53.178;5.846;2022-08-21T05:13:02;13.80;99.90
54680;DHT22;40578;53.178;5.846;2022-08-21T05:15:28;13.80;99.90
54680;DHT22;40578;53.178;5.846;2022-08-21T05:17:55;14.10;99.90
54680;DHT22;40578;53.178;5.846;2022-08-21T05:20:20;13.90;99.90
54680;DHT22;40578;53.178;5.846;2022-08-21T05:22:46;14.20;99.90
54680;DHT22;40578;53.178;5.846;2022-08-21T05:25:12;14.30;99.90
54680;DHT22;40578;53.178;5.846;2022-08-21T05:27:38;14.30;99.90
54680;DHT22;40578;53.178;5.846;2022-08-21T05:30:06;14.40;99.90
54680;DHT22;40578;53.178;5.846;2022-08-21T05:32:33;14.20;99.90
54680;DHT22;40578;53.178;5.846;2022-08-21T05:34:59;14.20;99.90
54680;DHT22;40578;53.178;5.846;2022-08-21T05:37:25;14.30;99.90
54680;DHT22;40578;53.178;5.846;2022-08-21T05:39:50;14.30;99.90
54680;DHT22;40578;53.178;5.846;2022-08-21T05:42:17;14.60;99.90
54680;DHT22;40578;53.178;5.846;2022-08-21T05:44:43;14.70;99.90
54680;DHT22;40578;53.178;5.846;2022-08-21T05:47:10;14.40;99.90
54680;DHT22;40578;53.178;5.846;2022-08-21T05:49:36;14.50;99.90
54680;DHT22;40578;53.178;5.846;2022-08-21T05:52:03;14.80;99.90
54680;DHT22;40578;53.178;5.846;2022-08-21T05:54:29;14.70;99.90
54680;DHT22;40578;53.178;5.846;2022-08-21T05:56:55;14.70;99.90
54680;DHT22;40578;53.178;5.846;2022-08-21T05:59:21;14.70;99.90
54680;DHT22;40578;53.178;5.846;2022-08-21T06:01:47;15.10;99.90
54680;DHT22;40578;53.178;5.846;2022-08-21T06:04:13;14.90;99.90
54680;DHT22;40578;53.178;5.846;2022-08-21T06:06:39;15.10;99.90
54680;DHT22;40578;53.178;5.846;2022-08-21T06:09:05;15.20;99.90
54680;DHT22;40578;53.178;5.846;2022-08-21T06:11:31;15.50;99.90
54680;DHT22;40578;53.178;5.846;2022-08-21T06:13:58;15.40;99.90
54680;DHT22;40578;53.178;5.846;2022-08-21T06:16:24;15.40;99.90
54680;DHT22;40578;53.178;5.846;2022-08-21T06:18:50;15.70;99.90
54680;DHT22;40578;53.178;5.846;2022-08-21T06:21:16;15.70;99.90
54680;DHT22;40578;53.178;5.846;2022-08-21T06:23:42;15.80;99.90
54680;DHT22;40578;53.178;5.846;2022-08-21T06:26:09;15.90;99.90
54680;DHT22;40578;53.178;5.846;2022-08-21T06:28:35;15.70;99.90
54680;DHT22;40578;53.178;5.846;2022-08-21T06:31:01;16.40;99.90
54680;DHT22;40578;53.178;5.846;2022-08-21T06:33:27;16.00;99.90
54680;DHT22;40578;53.178;5.846;2022-08-21T06:35:53;16.10;99.90
54680;DHT22;40578;53.178;5.846;2022-08-21T06:38:18;16.20;99.90
54680;DHT22;40578;53.178;5.846;2022-08-21T06:40:44;16.20;99.90
54680;DHT22;40578;53.178;5.846;2022-08-21T06:43:13;16.10;99.90
54680;DHT22;40578;53.178;5.846;2022-08-21T06:45:39;16.20;99.90
54680;DHT22;40578;53.178;5.846;2022-08-21T06:48:05;16.50;99.90
54680;DHT22;40578;53.178;5.846;2022-08-21T06:50:33;16.40;99.90
54680;DHT22;40578;53.178;5.846;2022-08-21T06:53:05;16.50;99.90
54680;DHT22;40578;53.178;5.846;2022-08-21T06:55:31;16.70;99.90
54680;DHT22;40578;53.178;5.846;2022-08-21T06:57:57;16.60;99.90
54680;DHT22;40578;53.178;5.846;2022-08-21T07:00:23;16.90;99.90
54680;DHT22;40578;53.178;5.846;2022-08-21T07:02:48;16.90;99.90
54680;DHT22;40578;53.178;5.846;2022-08-21T07:05:14;17.00;99.90
54680;DHT22;40578;53.178;5.846;2022-08-21T07:07:40;17.40;99.90
54680;DHT22;40578;53.178;5.846;2022-08-21T07:10:05;17.50;99.90
54680;DHT22;40578;53.178;5.846;2022-08-21T07:12:31;17.40;99.90
54680;DHT22;40578;53.178;5.846;2022-08-21T07:14:57;17.40;99.90
54680;DHT22;40578;53.178;5.846;2022-08-21T07:17:23;17.50;99.90
54680;DHT22;40578;53.178;5.846;2022-08-21T07:19:49;17.40;99.90
54680;DHT22;40578;53.178;5.846;2022-08-21T07:22:18;17.60;99.90
54680;DHT22;40578;53.178;5.846;2022-08-21T07:24:45;17.60;99.90
54680;DHT22;40578;53.178;5.846;2022-08-21T07:27:11;17.90;99.90
54680;DHT22;40578;53.178;5.846;2022-08-21T07:29:37;17.90;99.90
54680;DHT22;40578;53.178;5.846;2022-08-21T07:32:04;17.70;99.90
54680;DHT22;40578;53.178;5.846;2022-08-21T07:34:30;18.00;99.90
54680;DHT22;40578;53.178;5.846;2022-08-21T07:36:57;17.90;99.90
54680;DHT22;40578;53.178;5.846;2022-08-21T07:39:23;17.90;99.90
54680;DHT22;40578;53.178;5.846;2022-08-21T07:41:48;17.80;99.90
54680;DHT22;40578;53.178;5.846;2022-08-21T07:44:15;17.80;1.00
54680;DHT22;40578;53.178;5.846;2022-08-21T07:46:40;17.80;1.00
54680;DHT22;40578;53.178;5.846;2022-08-21T07:49:06;17.90;99.90
54680;DHT22;40578;53.178;5.846;2022-08-21T07:51:32;18.00;99.90
54680;DHT22;40578;53.178;5.846;2022-08-21T07:53:59;18.10;99.30
54680;DHT22;40578;53.178;5.846;2022-08-21T07:56:26;18.30;1.00
54680;DHT22;40578;53.178;5.846;2022-08-21T07:58:52;18.40;99.90
54680;DHT22;40578;53.178;5.846;2022-08-21T08:01:18;18.40;1.00
54680;DHT22;40578;53.178;5.846;2022-08-21T08:03:44;18.50;99.90
54680;DHT22;40578;53.178;5.846;2022-08-21T08:06:10;18.50;99.90
54680;DHT22;40578;53.178;5.846;2022-08-21T08:08:41;18.50;99.90
54680;DHT22;40578;53.178;5.846;2022-08-21T08:11:09;18.60;99.90
54680;DHT22;40578;53.178;5.846;2022-08-21T08:13:42;18.90;99.90
54680;DHT22;40578;53.178;5.846;2022-08-21T08:16:08;18.80;99.90
54680;DHT22;40578;53.178;5.846;2022-08-21T08:18:34;18.70;99.90
54680;DHT22;40578;53.178;5.846;2022-08-21T08:21:01;18.70;99.90
54680;DHT22;40578;53.178;5.846;2022-08-21T08:23:27;18.70;18.50
54680;DHT22;40578;53.178;5.846;2022-08-21T08:25:53;18.60;19.20
54680;DHT22;40578;53.178;5.846;2022-08-21T08:28:18;18.70;91.30
54680;DHT22;40578;53.178;5.846;2022-08-21T08:30:45;18.70;14.00
54680;DHT22;40578;53.178;5.846;2022-08-21T08:33:11;18.70;69.30
54680;DHT22;40578;53.178;5.846;2022-08-21T08:35:37;18.80;99.90
54680;DHT22;40578;53.178;5.846;2022-08-21T08:38:03;18.90;91.90
54680;DHT22;40578;53.178;5.846;2022-08-21T08:43:17;19.30;1.00
54680;DHT22;40578;53.178;5.846;2022-08-21T08:45:48;19.30;1.00
54680;DHT22;40578;53.178;5.846;2022-08-21T08:51:03;19.50;99.90
54680;DHT22;40578;53.178;5.846;2022-08-21T08:53:49;19.60;99.90
54680;DHT22;40578;53.178;5.846;2022-08-21T08:56:15;19.90;99.90
54680;DHT22;40578;53.178;5.846;2022-08-21T08:58:42;19.90;94.70
54680;DHT22;40578;53.178;5.846;2022-08-21T09:01:17;19.90;1.00
54680;DHT22;40578;53.178;5.846;2022-08-21T09:03:44;20.00;1.00
54680;DHT22;40578;53.178;5.846;2022-08-21T09:09:23;20.00;1.00
54680;DHT22;40578;53.178;5.846;2022-08-21T09:12:09;19.90;99.90
54680;DHT22;40578;53.178;5.846;2022-08-21T09:14:56;20.10;1.00
54680;DHT22;40578;53.178;5.846;2022-08-21T09:25:24;19.90;1.00
54680;DHT22;40578;53.178;5.846;2022-08-21T09:27:51;20.10;1.00
54680;DHT22;40578;53.178;5.846;2022-08-21T09:30:18;20.30;1.00
54680;DHT22;40578;53.178;5.846;2022-08-21T09:32:46;20.40;1.00
54680;DHT22;40578;53.178;5.846;2022-08-21T09:35:17;20.50;1.00
54680;DHT22;40578;53.178;5.846;2022-08-21T09:37:51;20.60;84.70
54680;DHT22;40578;53.178;5.846;2022-08-21T09:42:59;20.40;99.90
54680;DHT22;40578;53.178;5.846;2022-08-21T09:45:25;20.40;99.90
54680;DHT22;40578;53.178;5.846;2022-08-21T09:47:51;20.50;99.90
54680;DHT22;40578;53.178;5.846;2022-08-21T09:50:20;20.50;99.90
54680;DHT22;40578;53.178;5.846;2022-08-21T09:52:55;20.30;92.60
54680;DHT22;40578;53.178;5.846;2022-08-21T09:55:53;20.20;97.70
54680;DHT22;40578;53.178;5.846;2022-08-21T09:58:40;20.20;99.90
54680;DHT22;40578;53.178;5.846;2022-08-21T10:01:14;20.10;99.90
54680;DHT22;40578;53.178;5.846;2022-08-21T10:03:40;20.50;99.90
54680;DHT22;40578;53.178;5.846;2022-08-21T10:06:07;20.50;1.00
54680;DHT22;40578;53.178;5.846;2022-08-21T10:08:38;20.80;99.90
54680;DHT22;40578;53.178;5.846;2022-08-21T10:11:07;20.90;99.90
54680;DHT22;40578;53.178;5.846;2022-08-21T10:13:54;21.20;1.00
54680;DHT22;40578;53.178;5.846;2022-08-21T10:16:54;21.30;1.00
54680;DHT22;40578;53.178;5.846;2022-08-21T10:19:48;21.30;1.00
54680;DHT22;40578;53.178;5.846;2022-08-21T10:25:21;21.00;99.90
54680;DHT22;40578;53.178;5.846;2022-08-21T10:30:59;20.90;1.00
54680;DHT22;40578;53.178;5.846;2022-08-21T10:33:42;20.80;1.00
54680;DHT22;40578;53.178;5.846;2022-08-21T10:36:21;20.70;1.00
54680;DHT22;40578;53.178;5.846;2022-08-21T10:44:34;20.70;1.00
54680;DHT22;40578;53.178;5.846;2022-08-21T10:47:49;20.80;1.00
54680;DHT22;40578;53.178;5.846;2022-08-21T10:50:31;20.90;1.00
54680;DHT22;40578;53.178;5.846;2022-08-21T10:55:59;21.20;99.90
54680;DHT22;40578;53.178;5.846;2022-08-21T10:58:36;21.30;1.00
54680;DHT22;40578;53.178;5.846;2022-08-21T11:01:15;21.40;99.90
54680;DHT22;40578;53.178;5.846;2022-08-21T11:03:51;21.50;99.90
54680;DHT22;40578;53.178;5.846;2022-08-21T11:06:24;21.50;99.90
54680;DHT22;40578;53.178;5.846;2022-08-21T11:08:53;21.50;1.00
54680;DHT22;40578;53.178;5.846;2022-08-21T11:11:34;21.60;99.90
54680;DHT22;40578;53.178;5.846;2022-08-21T11:16:51;21.80;99.90
54680;DHT22;40578;53.178;5.846;2022-08-21T11:19:28;21.80;99.90
54680;DHT22;40578;53.178;5.846;2022-08-21T11:22:06;21.90;99.90
54680;DHT22;40578;53.178;5.846;2022-08-21T11:30:19;22.10;99.90
54680;DHT22;40578;53.178;5.846;2022-08-21T11:33:02;22.20;99.90
54680;DHT22;40578;53.178;5.846;2022-08-21T11:38:41;22.30;99.90
54680;DHT22;40578;53.178;5.846;2022-08-21T11:43:43;22.40;99.90
54680;DHT22;40578;53.178;5.846;2022-08-21T11:52:08;22.70;99.90
54680;DHT22;40578;53.178;5.846;2022-08-21T11:54:42;22.80;99.90
54680;DHT22;40578;53.178;5.846;2022-08-21T11:57:20;22.90;99.90
54680;DHT22;40578;53.178;5.846;2022-08-21T12:02:38;23.10;99.90
54680;DHT22;40578;53.178;5.846;2022-08-21T12:05:07;23.20;99.90
54680;DHT22;40578;53.178;5.846;2022-08-21T12:10:06;23.30;99.90
54680;DHT22;40578;53.178;5.846;2022-08-21T12:12:34;23.20;99.90
54680;DHT22;40578;53.178;5.846;2022-08-21T12:15:17;23.00;99.90
54680;DHT22;40578;53.178;5.846;2022-08-21T12:18:22;23.00;93.90
54680;DHT22;40578;53.178;5.846;2022-08-21T12:21:25;23.10;99.90
54680;DHT22;40578;53.178;5.846;2022-08-21T12:26:36;23.00;93.00
54680;DHT22;40578;53.178;5.846;2022-08-21T12:29:28;22.90;99.90
54680;DHT22;40578;53.178;5.846;2022-08-21T12:34:46;22.80;99.90
54680;DHT22;40578;53.178;5.846;2022-08-21T12:37:36;22.90;83.80
54680;DHT22;40578;53.178;5.846;2022-08-21T12:40:04;23.10;55.40
54680;DHT22;40578;53.178;5.846;2022-08-21T12:42:38;23.00;42.30
54680;DHT22;40578;53.178;5.846;2022-08-21T12:45:34;22.90;1.10
54680;DHT22;40578;53.178;5.846;2022-08-21T12:48:07;23.10;66.80
54680;DHT22;40578;53.178;5.846;2022-08-21T12:50:54;23.30;55.90
54680;DHT22;40578;53.178;5.846;2022-08-21T12:56:26;23.30;60.50
54680;DHT22;40578;53.178;5.846;2022-08-21T12:58:59;23.50;1.00
54680;DHT22;40578;53.178;5.846;2022-08-21T13:01:32;23.10;25.70
54680;DHT22;40578;53.178;5.846;2022-08-21T13:04:03;23.10;39.70
54680;DHT22;40578;53.178;5.846;2022-08-21T13:06:32;23.00;1.00
54680;DHT22;40578;53.178;5.846;2022-08-21T13:09:06;23.20;52.10
54680;DHT22;40578;53.178;5.846;2022-08-21T13:11:33;23.30;17.70
54680;DHT22;40578;53.178;5.846;2022-08-21T13:14:02;23.20;1.00
54680;DHT22;40578;53.178;5.846;2022-08-21T13:16:29;23.10;1.00
54680;DHT22;40578;53.178;5.846;2022-08-21T13:21:32;23.50;86.00
54680;DHT22;40578;53.178;5.846;2022-08-21T13:24:20;23.40;39.20
54680;DHT22;40578;53.178;5.846;2022-08-21T13:26:48;23.20;81.30
54680;DHT22;40578;53.178;5.846;2022-08-21T13:29:17;23.20;74.50
54680;DHT22;40578;53.178;5.846;2022-08-21T13:31:55;23.40;46.40
54680;DHT22;40578;53.178;5.846;2022-08-21T13:34:29;23.50;16.00
54680;DHT22;40578;53.178;5.846;2022-08-21T13:37:02;23.40;61.00
54680;DHT22;40578;53.178;5.846;2022-08-21T13:39:28;23.10;84.40
54680;DHT22;40578;53.178;5.846;2022-08-21T13:41:57;23.10;74.40
54680;DHT22;40578;53.178;5.846;2022-08-21T13:44:42;23.20;79.50
54680;DHT22;40578;53.178;5.846;2022-08-21T13:47:11;23.40;1.00
54680;DHT22;40578;53.178;5.846;2022-08-21T13:49:50;23.50;1.00
54680;DHT22;40578;53.178;5.846;2022-08-21T13:52:22;23.30;4.00
54680;DHT22;40578;53.178;5.846;2022-08-21T13:55:00;23.60;25.20
54680;DHT22;40578;53.178;5.846;2022-08-21T13:57:34;23.70;18.80
54680;DHT22;40578;53.178;5.846;2022-08-21T14:02:42;23.90;1.00
54680;DHT22;40578;53.178;5.846;2022-08-21T14:05:21;23.80;1.00
54680;DHT22;40578;53.178;5.846;2022-08-21T14:07:50;23.90;1.70
54680;DHT22;40578;53.178;5.846;2022-08-21T14:10:21;23.90;1.00
54680;DHT22;40578;53.178;5.846;2022-08-21T14:12:51;23.50;1.00
54680;DHT22;40578;53.178;5.846;2022-08-21T14:15:22;23.60;1.00
54680;DHT22;40578;53.178;5.846;2022-08-21T14:17:48;23.60;1.00
54680;DHT22;40578;53.178;5.846;2022-08-21T14:20:34;23.50;1.00
54680;DHT22;40578;53.178;5.846;2022-08-21T14:23:00;23.10;1.00
54680;DHT22;40578;53.178;5.846;2022-08-21T14:30:28;23.30;98.50
54680;DHT22;40578;53.178;5.846;2022-08-21T14:32:54;23.30;99.90
54680;DHT22;40578;53.178;5.846;2022-08-21T14:35:20;23.20;99.90
54680;DHT22;40578;53.178;5.846;2022-08-21T14:37:48;23.20;99.90
54680;DHT22;40578;53.178;5.846;2022-08-21T14:40:19;23.20;99.90
54680;DHT22;40578;53.178;5.846;2022-08-21T14:42:45;23.30;99.90
54680;DHT22;40578;53.178;5.846;2022-08-21T14:45:20;23.30;99.90
54680;DHT22;40578;53.178;5.846;2022-08-21T14:47:48;23.40;99.90
54680;DHT22;40578;53.178;5.846;2022-08-21T14:50:13;23.40;99.90
54680;DHT22;40578;53.178;5.846;2022-08-21T14:52:40;23.30;99.90
54680;DHT22;40578;53.178;5.846;2022-08-21T14:55:07;23.20;99.90
54680;DHT22;40578;53.178;5.846;2022-08-21T14:57:36;22.80;99.90
54680;DHT22;40578;53.178;5.846;2022-08-21T15:00:03;22.80;99.90
54680;DHT22;40578;53.178;5.846;2022-08-21T15:02:29;22.80;99.90
54680;DHT22;40578;53.178;5.846;2022-08-21T15:04:55;22.80;99.90
54680;DHT22;40578;53.178;5.846;2022-08-21T15:07:21;22.90;99.90
54680;DHT22;40578;53.178;5.846;2022-08-21T15:09:46;23.00;99.90
54680;DHT22;40578;53.178;5.846;2022-08-21T15:12:13;23.10;99.90
54680;DHT22;40578;53.178;5.846;2022-08-21T15:14:39;23.20;99.90
54680;DHT22;40578;53.178;5.846;2022-08-21T15:17:07;23.30;89.20
54680;DHT22;40578;53.178;5.846;2022-08-21T15:19:33;23.10;90.30
54680;DHT22;40578;53.178;5.846;2022-08-21T15:21:59;23.10;99.90
54680;DHT22;40578;53.178;5.846;2022-08-21T15:24:25;23.20;83.80
54680;DHT22;40578;53.178;5.846;2022-08-21T15:26:52;23.20;6.20
54680;DHT22;40578;53.178;5.846;2022-08-21T15:29:19;23.00;52.60
54680;DHT22;40578;53.178;5.846;2022-08-21T15:31:58;22.90;99.90
54680;DHT22;40578;53.178;5.846;2022-08-21T15:34:28;22.50;59.40
54680;DHT22;40578;53.178;5.846;2022-08-21T15:36:55;22.50;99.90
54680;DHT22;40578;53.178;5.846;2022-08-21T15:39:21;22.50;99.90
54680;DHT22;40578;53.178;5.846;2022-08-21T15:41:47;22.50;99.90
54680;DHT22;40578;53.178;5.846;2022-08-21T15:44:13;22.40;99.90
54680;DHT22;40578;53.178;5.846;2022-08-21T15:46:40;22.50;99.90
54680;DHT22;40578;53.178;5.846;2022-08-21T15:49:08;22.60;87.10
54680;DHT22;40578;53.178;5.846;2022-08-21T15:51:34;22.70;64.20
54680;DHT22;40578;53.178;5.846;2022-08-21T15:54:00;22.70;47.90
54680;DHT22;40578;53.178;5.846;2022-08-21T15:56:28;22.70;3.00
54680;DHT22;40578;53.178;5.846;2022-08-21T15:59:15;22.60;6.30
54680;DHT22;40578;53.178;5.846;2022-08-21T16:01:42;22.70;5.50
54680;DHT22;40578;53.178;5.846;2022-08-21T16:04:08;22.60;14.70
54680;DHT22;40578;53.178;5.846;2022-08-21T16:06:34;22.70;62.30
54680;DHT22;40578;53.178;5.846;2022-08-21T16:09:00;22.70;69.00
54680;DHT22;40578;53.178;5.846;2022-08-21T16:11:27;22.90;1.10
54680;DHT22;40578;53.178;5.846;2022-08-21T16:13:53;22.80;1.00
54680;DHT22;40578;53.178;5.846;2022-08-21T16:16:20;22.70;1.00
54680;DHT22;40578;53.178;5.846;2022-08-21T16:18:47;22.60;1.00
54680;DHT22;40578;53.178;5.846;2022-08-21T16:21:13;22.50;1.00
54680;DHT22;40578;53.178;5.846;2022-08-21T16:23:39;22.20;20.70
54680;DHT22;40578;53.178;5.846;2022-08-21T16:26:07;22.20;87.80
54680;DHT22;40578;53.178;5.846;2022-08-21T16:28:36;22.30;90.30
54680;DHT22;40578;53.178;5.846;2022-08-21T16:31:02;22.40;78.00
54680;DHT22;40578;53.178;5.846;2022-08-21T16:33:36;22.70;1.00
54680;DHT22;40578;53.178;5.846;2022-08-21T16:36:04;22.80;1.00
54680;DHT22;40578;53.178;5.846;2022-08-21T16:38:30;22.80;1.00
54680;DHT22;40578;53.178;5.846;2022-08-21T16:40:57;22.90;1.00
54680;DHT22;40578;53.178;5.846;2022-08-21T16:43:25;22.80;1.00
54680;DHT22;40578;53.178;5.846;2022-08-21T16:45:53;22.60;1.00
54680;DHT22;40578;53.178;5.846;2022-08-21T16:48:19;22.60;9.20
54680;DHT22;40578;53.178;5.846;2022-08-21T16:50:44;22.70;21.00
54680;DHT22;40578;53.178;5.846;2022-08-21T16:53:10;22.70;16.10
54680;DHT22;40578;53.178;5.846;2022-08-21T16:55:36;22.70;16.00
54680;DHT22;40578;53.178;5.846;2022-08-21T16:58:08;22.80;26.50
54680;DHT22;40578;53.178;5.846;2022-08-21T17:00:35;22.90;1.00
54680;DHT22;40578;53.178;5.846;2022-08-21T17:03:00;23.00;1.00